Terminal Aerodrome Forecast
Issued by NWS

Home | Current Version | Previous Version | Graphics & Text | Print | Product List | Glossary On
Versions: 1 2 3 4 5 6 7 8 9 10 11 12 13 14 15 16 17 18
347
FTUS43 KICT 292227 AAC
TAFSLN
TAF AMD
KSLN 292227Z 2922/3018 12010KT P6SM VCTS SCT035 BKN070CB
      TEMPO 2922/2924 VRB20KT 4SM +TSRA BKN035CB
     FM300100 05007KT P6SM SCT050 BKN100
     FM300700 VRB05KT P6SM SCT015 BKN070=

USA.gov is the U.S. government's official web portal to all federal, state and local government web resources and services.